sensor_id;sensor_type;location;lat;lon;timestamp;temperature;humidity
18998;DHT22;9632;51.018;4.284;2022-08-16T00:01:04;23.30;99.90
18998;DHT22;9632;51.018;4.284;2022-08-16T00:03:30;23.30;99.90
18998;DHT22;9632;51.018;4.284;2022-08-16T00:05:56;23.20;99.90
18998;DHT22;9632;51.018;4.284;2022-08-16T00:08:21;23.20;99.90
18998;DHT22;9632;51.018;4.284;2022-08-16T00:10:47;23.20;99.90
18998;DHT22;9632;51.018;4.284;2022-08-16T00:13:13;23.20;99.90
18998;DHT22;9632;51.018;4.284;2022-08-16T00:15:42;23.20;99.90
18998;DHT22;9632;51.018;4.284;2022-08-16T00:18:09;23.20;99.90
18998;DHT22;9632;51.018;4.284;2022-08-16T00:20:37;23.10;99.90
18998;DHT22;9632;51.018;4.284;2022-08-16T00:23:03;23.10;99.90
18998;DHT22;9632;51.018;4.284;2022-08-16T00:25:30;23.10;99.90
18998;DHT22;9632;51.018;4.284;2022-08-16T00:27:56;23.10;99.90
18998;DHT22;9632;51.018;4.284;2022-08-16T00:30:22;23.10;99.90
18998;DHT22;9632;51.018;4.284;2022-08-16T00:32:50;23.00;99.90
18998;DHT22;9632;51.018;4.284;2022-08-16T00:35:23;23.00;99.90
18998;DHT22;9632;51.018;4.284;2022-08-16T00:37:49;23.00;99.90
18998;DHT22;9632;51.018;4.284;2022-08-16T00:40:41;23.00;99.90
18998;DHT22;9632;51.018;4.284;2022-08-16T00:43:19;23.00;99.90
18998;DHT22;9632;51.018;4.284;2022-08-16T00:48:17;22.90;99.90
18998;DHT22;9632;51.018;4.284;2022-08-16T00:50:44;22.80;99.90
18998;DHT22;9632;51.018;4.284;2022-08-16T00:53:14;22.80;99.90
18998;DHT22;9632;51.018;4.284;2022-08-16T00:55:50;22.80;99.90
18998;DHT22;9632;51.018;4.284;2022-08-16T00:58:20;22.80;99.90
18998;DHT22;9632;51.018;4.284;2022-08-16T01:00:47;22.80;99.90
18998;DHT22;9632;51.018;4.284;2022-08-16T01:03:16;22.70;99.90
18998;DHT22;9632;51.018;4.284;2022-08-16T01:05:44;22.70;99.90
18998;DHT22;9632;51.018;4.284;2022-08-16T01:08:12;22.70;99.90
18998;DHT22;9632;51.018;4.284;2022-08-16T01:10:39;22.70;99.90
18998;DHT22;9632;51.018;4.284;2022-08-16T01:13:17;22.70;99.90
18998;DHT22;9632;51.018;4.284;2022-08-16T01:15:50;22.60;99.90
18998;DHT22;9632;51.018;4.284;2022-08-16T01:18:19;22.60;99.90
18998;DHT22;9632;51.018;4.284;2022-08-16T01:20:52;22.60;99.90
18998;DHT22;9632;51.018;4.284;2022-08-16T01:23:25;22.60;99.90
18998;DHT22;9632;51.018;4.284;2022-08-16T01:25:54;22.50;99.90
18998;DHT22;9632;51.018;4.284;2022-08-16T01:28:22;22.50;99.90
18998;DHT22;9632;51.018;4.284;2022-08-16T01:30:54;22.50;99.90
18998;DHT22;9632;51.018;4.284;2022-08-16T01:33:20;22.40;99.90
18998;DHT22;9632;51.018;4.284;2022-08-16T01:35:59;22.50;99.90
18998;DHT22;9632;51.018;4.284;2022-08-16T01:38:30;22.40;99.90
18998;DHT22;9632;51.018;4.284;2022-08-16T01:41:08;22.40;99.90
18998;DHT22;9632;51.018;4.284;2022-08-16T01:43:35;22.30;99.90
18998;DHT22;9632;51.018;4.284;2022-08-16T01:46:05;22.40;99.90
18998;DHT22;9632;51.018;4.284;2022-08-16T01:48:32;22.30;99.90
18998;DHT22;9632;51.018;4.284;2022-08-16T01:51:00;22.30;99.90
18998;DHT22;9632;51.018;4.284;2022-08-16T01:53:27;22.30;99.90
18998;DHT22;9632;51.018;4.284;2022-08-16T01:55:53;22.30;99.90
18998;DHT22;9632;51.018;4.284;2022-08-16T01:58:20;22.30;99.90
18998;DHT22;9632;51.018;4.284;2022-08-16T02:00:47;22.30;99.90
18998;DHT22;9632;51.018;4.284;2022-08-16T02:03:13;22.30;99.90
18998;DHT22;9632;51.018;4.284;2022-08-16T02:05:40;22.30;99.90
18998;DHT22;9632;51.018;4.284;2022-08-16T02:08:07;22.20;99.90
18998;DHT22;9632;51.018;4.284;2022-08-16T02:10:35;22.20;99.90
18998;DHT22;9632;51.018;4.284;2022-08-16T02:13:05;22.20;99.90
18998;DHT22;9632;51.018;4.284;2022-08-16T02:15:33;22.20;99.90
18998;DHT22;9632;51.018;4.284;2022-08-16T02:18:01;22.20;99.90
18998;DHT22;9632;51.018;4.284;2022-08-16T02:20:30;22.20;99.90
18998;DHT22;9632;51.018;4.284;2022-08-16T02:22:58;22.10;99.90
18998;DHT22;9632;51.018;4.284;2022-08-16T02:25:24;22.10;99.90
18998;DHT22;9632;51.018;4.284;2022-08-16T02:27:49;22.10;99.90
18998;DHT22;9632;51.018;4.284;2022-08-16T02:30:22;22.10;99.90
18998;DHT22;9632;51.018;4.284;2022-08-16T02:32:48;22.10;99.90
18998;DHT22;9632;51.018;4.284;2022-08-16T02:35:14;22.10;99.90
18998;DHT22;9632;51.018;4.284;2022-08-16T02:37:40;22.10;99.90
18998;DHT22;9632;51.018;4.284;2022-08-16T02:40:06;22.10;99.90
18998;DHT22;9632;51.018;4.284;2022-08-16T02:42:33;22.10;99.90
18998;DHT22;9632;51.018;4.284;2022-08-16T02:44:58;22.00;99.90
18998;DHT22;9632;51.018;4.284;2022-08-16T02:47:24;22.00;99.90
18998;DHT22;9632;51.018;4.284;2022-08-16T02:49:50;22.00;99.90
18998;DHT22;9632;51.018;4.284;2022-08-16T02:52:16;22.10;99.90
18998;DHT22;9632;51.018;4.284;2022-08-16T02:54:42;22.00;99.90
18998;DHT22;9632;51.018;4.284;2022-08-16T02:57:07;22.00;99.90
18998;DHT22;9632;51.018;4.284;2022-08-16T02:59:33;22.00;99.90
18998;DHT22;9632;51.018;4.284;2022-08-16T03:01:59;22.00;99.90
18998;DHT22;9632;51.018;4.284;2022-08-16T03:04:25;21.90;99.90
18998;DHT22;9632;51.018;4.284;2022-08-16T03:06:52;21.90;99.90
18998;DHT22;9632;51.018;4.284;2022-08-16T03:09:17;21.90;99.90
18998;DHT22;9632;51.018;4.284;2022-08-16T03:11:43;21.90;99.90
18998;DHT22;9632;51.018;4.284;2022-08-16T03:14:10;21.90;99.90
18998;DHT22;9632;51.018;4.284;2022-08-16T03:16:36;21.90;99.90
18998;DHT22;9632;51.018;4.284;2022-08-16T03:19:02;21.90;99.90
18998;DHT22;9632;51.018;4.284;2022-08-16T03:21:28;21.80;99.90
18998;DHT22;9632;51.018;4.284;2022-08-16T03:23:54;21.80;99.90
18998;DHT22;9632;51.018;4.284;2022-08-16T03:26:20;21.80;99.90
18998;DHT22;9632;51.018;4.284;2022-08-16T03:28:45;21.70;99.90
18998;DHT22;9632;51.018;4.284;2022-08-16T03:31:11;21.70;99.90
18998;DHT22;9632;51.018;4.284;2022-08-16T03:33:37;21.70;99.90
18998;DHT22;9632;51.018;4.284;2022-08-16T03:36:04;21.70;99.90
18998;DHT22;9632;51.018;4.284;2022-08-16T03:38:31;21.70;99.90
18998;DHT22;9632;51.018;4.284;2022-08-16T03:40:58;21.70;99.90
18998;DHT22;9632;51.018;4.284;2022-08-16T03:43:24;21.60;99.90
18998;DHT22;9632;51.018;4.284;2022-08-16T03:45:52;21.60;99.90
18998;DHT22;9632;51.018;4.284;2022-08-16T03:48:21;21.60;99.90
18998;DHT22;9632;51.018;4.284;2022-08-16T03:50:48;21.60;99.90
18998;DHT22;9632;51.018;4.284;2022-08-16T03:53:13;21.60;99.90
18998;DHT22;9632;51.018;4.284;2022-08-16T03:55:39;21.50;99.90
18998;DHT22;9632;51.018;4.284;2022-08-16T03:58:05;21.60;99.90
18998;DHT22;9632;51.018;4.284;2022-08-16T04:00:31;21.50;99.90
18998;DHT22;9632;51.018;4.284;2022-08-16T04:02:59;21.50;99.90
18998;DHT22;9632;51.018;4.284;2022-08-16T04:05:32;21.50;99.90
18998;DHT22;9632;51.018;4.284;2022-08-16T04:07:57;21.50;99.90
18998;DHT22;9632;51.018;4.284;2022-08-16T04:10:23;21.50;99.90
18998;DHT22;9632;51.018;4.284;2022-08-16T04:12:49;21.50;99.90
18998;DHT22;9632;51.018;4.284;2022-08-16T04:15:15;21.50;99.90
18998;DHT22;9632;51.018;4.284;2022-08-16T04:17:42;21.40;99.90
18998;DHT22;9632;51.018;4.284;2022-08-16T04:20:09;21.40;99.90
18998;DHT22;9632;51.018;4.284;2022-08-16T04:22:36;21.40;99.90
18998;DHT22;9632;51.018;4.284;2022-08-16T04:25:05;21.40;99.90
18998;DHT22;9632;51.018;4.284;2022-08-16T04:27:31;21.40;99.90
18998;DHT22;9632;51.018;4.284;2022-08-16T04:29:58;21.30;99.90
18998;DHT22;9632;51.018;4.284;2022-08-16T04:32:24;21.30;99.90
18998;DHT22;9632;51.018;4.284;2022-08-16T04:34:50;21.30;99.90
18998;DHT22;9632;51.018;4.284;2022-08-16T04:37:15;21.20;99.90
18998;DHT22;9632;51.018;4.284;2022-08-16T04:39:41;21.20;99.90
18998;DHT22;9632;51.018;4.284;2022-08-16T04:42:06;21.20;99.90
18998;DHT22;9632;51.018;4.284;2022-08-16T04:44:32;21.20;99.90
18998;DHT22;9632;51.018;4.284;2022-08-16T04:46:58;21.20;99.90
18998;DHT22;9632;51.018;4.284;2022-08-16T04:49:24;21.10;99.90
18998;DHT22;9632;51.018;4.284;2022-08-16T04:51:50;21.20;99.90
18998;DHT22;9632;51.018;4.284;2022-08-16T04:54:16;21.10;99.90
18998;DHT22;9632;51.018;4.284;2022-08-16T04:56:42;21.20;99.90
18998;DHT22;9632;51.018;4.284;2022-08-16T04:59:08;21.10;99.90
18998;DHT22;9632;51.018;4.284;2022-08-16T05:01:35;21.20;99.90
18998;DHT22;9632;51.018;4.284;2022-08-16T05:04:01;21.20;99.90
18998;DHT22;9632;51.018;4.284;2022-08-16T05:06:27;21.30;99.90
18998;DHT22;9632;51.018;4.284;2022-08-16T05:08:53;21.40;99.90
18998;DHT22;9632;51.018;4.284;2022-08-16T05:11:19;21.50;99.90
18998;DHT22;9632;51.018;4.284;2022-08-16T05:13:47;21.70;99.90
18998;DHT22;9632;51.018;4.284;2022-08-16T05:16:16;21.80;99.90
18998;DHT22;9632;51.018;4.284;2022-08-16T05:18:42;21.90;99.90
18998;DHT22;9632;51.018;4.284;2022-08-16T05:21:08;22.00;99.90
18998;DHT22;9632;51.018;4.284;2022-08-16T05:23:34;22.20;99.90
18998;DHT22;9632;51.018;4.284;2022-08-16T05:25:59;22.40;99.90
18998;DHT22;9632;51.018;4.284;2022-08-16T05:28:26;22.50;99.90
18998;DHT22;9632;51.018;4.284;2022-08-16T05:30:52;22.80;99.90
18998;DHT22;9632;51.018;4.284;2022-08-16T05:33:18;23.00;99.90
18998;DHT22;9632;51.018;4.284;2022-08-16T05:35:45;23.10;99.90
18998;DHT22;9632;51.018;4.284;2022-08-16T05:38:11;23.30;99.90
18998;DHT22;9632;51.018;4.284;2022-08-16T05:40:37;23.50;99.90
18998;DHT22;9632;51.018;4.284;2022-08-16T05:43:03;23.50;99.90
18998;DHT22;9632;51.018;4.284;2022-08-16T05:45:28;23.50;99.90
18998;DHT22;9632;51.018;4.284;2022-08-16T05:47:54;23.30;99.90
18998;DHT22;9632;51.018;4.284;2022-08-16T05:50:19;23.30;99.90
18998;DHT22;9632;51.018;4.284;2022-08-16T05:52:45;23.40;99.90
18998;DHT22;9632;51.018;4.284;2022-08-16T05:55:11;23.40;99.90
18998;DHT22;9632;51.018;4.284;2022-08-16T05:57:36;23.50;99.90
18998;DHT22;9632;51.018;4.284;2022-08-16T06:00:05;23.60;99.90
18998;DHT22;9632;51.018;4.284;2022-08-16T06:02:33;23.70;99.90
18998;DHT22;9632;51.018;4.284;2022-08-16T06:04:59;23.90;99.90
18998;DHT22;9632;51.018;4.284;2022-08-16T06:07:24;24.10;99.90
18998;DHT22;9632;51.018;4.284;2022-08-16T06:09:50;24.20;99.90
18998;DHT22;9632;51.018;4.284;2022-08-16T06:12:16;24.30;99.90
18998;DHT22;9632;51.018;4.284;2022-08-16T06:14:42;24.40;99.90
18998;DHT22;9632;51.018;4.284;2022-08-16T06:17:08;24.40;99.90
18998;DHT22;9632;51.018;4.284;2022-08-16T06:19:34;24.60;99.90
18998;DHT22;9632;51.018;4.284;2022-08-16T06:21:59;24.80;99.90
18998;DHT22;9632;51.018;4.284;2022-08-16T06:24:25;25.00;99.90
18998;DHT22;9632;51.018;4.284;2022-08-16T06:26:50;25.00;99.90
18998;DHT22;9632;51.018;4.284;2022-08-16T06:29:16;25.10;99.90
18998;DHT22;9632;51.018;4.284;2022-08-16T06:31:42;25.20;99.90
18998;DHT22;9632;51.018;4.284;2022-08-16T06:34:07;25.30;99.90
18998;DHT22;9632;51.018;4.284;2022-08-16T06:36:33;25.50;99.90
18998;DHT22;9632;51.018;4.284;2022-08-16T06:38:59;25.30;99.90
18998;DHT22;9632;51.018;4.284;2022-08-16T06:41:24;25.30;99.90
18998;DHT22;9632;51.018;4.284;2022-08-16T06:43:50;25.50;99.90
18998;DHT22;9632;51.018;4.284;2022-08-16T06:46:42;25.70;99.90
18998;DHT22;9632;51.018;4.284;2022-08-16T06:49:09;25.90;99.90
18998;DHT22;9632;51.018;4.284;2022-08-16T06:51:37;26.00;99.90
18998;DHT22;9632;51.018;4.284;2022-08-16T06:54:03;26.10;99.90
18998;DHT22;9632;51.018;4.284;2022-08-16T06:56:29;26.10;99.90
18998;DHT22;9632;51.018;4.284;2022-08-16T06:58:55;26.20;99.90
18998;DHT22;9632;51.018;4.284;2022-08-16T07:01:21;26.00;99.90
18998;DHT22;9632;51.018;4.284;2022-08-16T07:03:48;25.90;99.90
18998;DHT22;9632;51.018;4.284;2022-08-16T07:06:14;26.00;99.90
18998;DHT22;9632;51.018;4.284;2022-08-16T07:08:39;26.00;99.90
18998;DHT22;9632;51.018;4.284;2022-08-16T07:11:07;26.20;99.90
18998;DHT22;9632;51.018;4.284;2022-08-16T07:13:34;26.50;99.90
18998;DHT22;9632;51.018;4.284;2022-08-16T07:16:00;26.70;99.90
18998;DHT22;9632;51.018;4.284;2022-08-16T07:18:26;26.70;99.90
18998;DHT22;9632;51.018;4.284;2022-08-16T07:20:52;26.70;99.90
18998;DHT22;9632;51.018;4.284;2022-08-16T07:23:18;26.90;99.90
18998;DHT22;9632;51.018;4.284;2022-08-16T07:25:44;27.10;99.90
18998;DHT22;9632;51.018;4.284;2022-08-16T07:28:15;27.30;99.90
18998;DHT22;9632;51.018;4.284;2022-08-16T07:30:42;27.40;99.90
18998;DHT22;9632;51.018;4.284;2022-08-16T07:33:08;27.50;99.90
18998;DHT22;9632;51.018;4.284;2022-08-16T07:35:35;27.50;99.90
18998;DHT22;9632;51.018;4.284;2022-08-16T07:38:01;27.40;99.90
18998;DHT22;9632;51.018;4.284;2022-08-16T07:40:27;27.50;99.90
18998;DHT22;9632;51.018;4.284;2022-08-16T07:42:54;27.60;99.90
18998;DHT22;9632;51.018;4.284;2022-08-16T07:45:20;27.60;99.90
18998;DHT22;9632;51.018;4.284;2022-08-16T07:47:45;27.60;99.90
18998;DHT22;9632;51.018;4.284;2022-08-16T07:50:13;27.70;99.90
18998;DHT22;9632;51.018;4.284;2022-08-16T07:52:40;27.90;99.90
18998;DHT22;9632;51.018;4.284;2022-08-16T07:55:07;28.10;99.90
18998;DHT22;9632;51.018;4.284;2022-08-16T07:57:33;28.20;99.90
18998;DHT22;9632;51.018;4.284;2022-08-16T07:59:58;28.30;99.90
18998;DHT22;9632;51.018;4.284;2022-08-16T08:02:26;28.20;99.90
18998;DHT22;9632;51.018;4.284;2022-08-16T08:04:51;28.20;99.90
18998;DHT22;9632;51.018;4.284;2022-08-16T08:07:17;28.00;99.90
18998;DHT22;9632;51.018;4.284;2022-08-16T08:09:43;28.00;99.90
18998;DHT22;9632;51.018;4.284;2022-08-16T08:12:09;27.90;99.90
18998;DHT22;9632;51.018;4.284;2022-08-16T08:14:34;27.60;99.90
18998;DHT22;9632;51.018;4.284;2022-08-16T08:17:01;27.60;99.90
18998;DHT22;9632;51.018;4.284;2022-08-16T08:19:35;27.70;99.90
18998;DHT22;9632;51.018;4.284;2022-08-16T08:22:02;27.90;99.90
18998;DHT22;9632;51.018;4.284;2022-08-16T08:24:28;27.90;99.90
18998;DHT22;9632;51.018;4.284;2022-08-16T08:27:02;28.10;99.90
18998;DHT22;9632;51.018;4.284;2022-08-16T08:29:28;28.20;99.90
18998;DHT22;9632;51.018;4.284;2022-08-16T08:31:53;28.30;99.90
18998;DHT22;9632;51.018;4.284;2022-08-16T08:34:19;28.50;99.90
18998;DHT22;9632;51.018;4.284;2022-08-16T08:36:45;28.50;99.90
18998;DHT22;9632;51.018;4.284;2022-08-16T08:39:13;28.70;99.90
18998;DHT22;9632;51.018;4.284;2022-08-16T08:41:41;28.90;99.90
18998;DHT22;9632;51.018;4.284;2022-08-16T08:44:06;28.90;99.90
18998;DHT22;9632;51.018;4.284;2022-08-16T08:46:32;29.00;99.90
18998;DHT22;9632;51.018;4.284;2022-08-16T08:48:58;29.00;99.90
18998;DHT22;9632;51.018;4.284;2022-08-16T08:51:23;29.00;99.90
18998;DHT22;9632;51.018;4.284;2022-08-16T08:53:50;29.00;99.90
18998;DHT22;9632;51.018;4.284;2022-08-16T08:56:16;29.00;99.90
18998;DHT22;9632;51.018;4.284;2022-08-16T08:58:42;28.90;99.90
18998;DHT22;9632;51.018;4.284;2022-08-16T09:01:08;29.00;99.90
18998;DHT22;9632;51.018;4.284;2022-08-16T09:03:36;29.00;99.90
18998;DHT22;9632;51.018;4.284;2022-08-16T09:06:03;29.00;99.90
18998;DHT22;9632;51.018;4.284;2022-08-16T09:08:30;29.10;99.90
18998;DHT22;9632;51.018;4.284;2022-08-16T09:10:58;29.20;99.90
18998;DHT22;9632;51.018;4.284;2022-08-16T09:13:25;29.20;99.90
18998;DHT22;9632;51.018;4.284;2022-08-16T09:15:52;29.30;99.90
18998;DHT22;9632;51.018;4.284;2022-08-16T09:18:23;29.40;99.40
18998;DHT22;9632;51.018;4.284;2022-08-16T09:20:53;29.50;99.30
18998;DHT22;9632;51.018;4.284;2022-08-16T09:23:18;29.50;99.40
18998;DHT22;9632;51.018;4.284;2022-08-16T09:25:45;29.60;98.90
18998;DHT22;9632;51.018;4.284;2022-08-16T09:28:11;29.60;98.90
18998;DHT22;9632;51.018;4.284;2022-08-16T09:30:37;29.80;98.50
18998;DHT22;9632;51.018;4.284;2022-08-16T09:33:04;29.80;97.40
18998;DHT22;9632;51.018;4.284;2022-08-16T09:35:30;29.80;97.90
18998;DHT22;9632;51.018;4.284;2022-08-16T09:37:55;29.80;97.00
18998;DHT22;9632;51.018;4.284;2022-08-16T09:40:22;29.90;97.00
18998;DHT22;9632;51.018;4.284;2022-08-16T09:42:48;29.80;96.10
18998;DHT22;9632;51.018;4.284;2022-08-16T09:45:14;29.80;97.20
18998;DHT22;9632;51.018;4.284;2022-08-16T09:47:40;29.70;94.80
18998;DHT22;9632;51.018;4.284;2022-08-16T09:50:10;29.70;95.40
18998;DHT22;9632;51.018;4.284;2022-08-16T09:52:37;29.80;94.90
18998;DHT22;9632;51.018;4.284;2022-08-16T09:55:05;30.00;94.90
18998;DHT22;9632;51.018;4.284;2022-08-16T09:57:32;29.90;93.80
18998;DHT22;9632;51.018;4.284;2022-08-16T09:59:58;30.00;94.50
18998;DHT22;9632;51.018;4.284;2022-08-16T10:02:26;30.10;94.00
18998;DHT22;9632;51.018;4.284;2022-08-16T10:04:52;30.10;94.10
18998;DHT22;9632;51.018;4.284;2022-08-16T10:07:18;30.10;94.90
18998;DHT22;9632;51.018;4.284;2022-08-16T10:09:44;30.30;93.30
18998;DHT22;9632;51.018;4.284;2022-08-16T10:12:10;30.40;93.10
18998;DHT22;9632;51.018;4.284;2022-08-16T10:14:54;30.50;93.70
18998;DHT22;9632;51.018;4.284;2022-08-16T10:17:20;30.40;93.50
18998;DHT22;9632;51.018;4.284;2022-08-16T10:19:46;30.50;93.50
18998;DHT22;9632;51.018;4.284;2022-08-16T10:22:12;30.50;92.50
18998;DHT22;9632;51.018;4.284;2022-08-16T10:24:39;30.50;92.00
18998;DHT22;9632;51.018;4.284;2022-08-16T10:27:05;30.50;91.40
18998;DHT22;9632;51.018;4.284;2022-08-16T10:29:31;30.50;91.00
18998;DHT22;9632;51.018;4.284;2022-08-16T10:31:56;30.60;90.90
18998;DHT22;9632;51.018;4.284;2022-08-16T10:34:22;30.50;90.50
18998;DHT22;9632;51.018;4.284;2022-08-16T10:36:48;30.50;90.80
18998;DHT22;9632;51.018;4.284;2022-08-16T10:39:14;30.40;90.40
18998;DHT22;9632;51.018;4.284;2022-08-16T10:41:39;30.40;90.60
18998;DHT22;9632;51.018;4.284;2022-08-16T10:44:05;30.40;91.20
18998;DHT22;9632;51.018;4.284;2022-08-16T10:46:31;30.40;91.20
18998;DHT22;9632;51.018;4.284;2022-08-16T10:48:57;30.30;91.40
18998;DHT22;9632;51.018;4.284;2022-08-16T10:51:23;30.40;91.30
18998;DHT22;9632;51.018;4.284;2022-08-16T10:53:49;30.20;91.10
18998;DHT22;9632;51.018;4.284;2022-08-16T10:56:15;30.20;91.10
18998;DHT22;9632;51.018;4.284;2022-08-16T10:58:41;30.10;91.20
18998;DHT22;9632;51.018;4.284;2022-08-16T11:01:08;30.00;91.10
18998;DHT22;9632;51.018;4.284;2022-08-16T11:03:35;30.10;91.30
18998;DHT22;9632;51.018;4.284;2022-08-16T11:06:03;30.20;91.40
18998;DHT22;9632;51.018;4.284;2022-08-16T11:08:29;30.30;90.70
18998;DHT22;9632;51.018;4.284;2022-08-16T11:10:55;30.30;90.40
18998;DHT22;9632;51.018;4.284;2022-08-16T11:13:22;30.40;90.50
18998;DHT22;9632;51.018;4.284;2022-08-16T11:15:50;30.40;91.00
18998;DHT22;9632;51.018;4.284;2022-08-16T11:18:16;30.30;90.60
18998;DHT22;9632;51.018;4.284;2022-08-16T11:20:42;30.20;90.80
18998;DHT22;9632;51.018;4.284;2022-08-16T11:23:09;30.20;90.90
18998;DHT22;9632;51.018;4.284;2022-08-16T11:25:36;30.10;90.00
18998;DHT22;9632;51.018;4.284;2022-08-16T11:28:03;30.10;90.30
18998;DHT22;9632;51.018;4.284;2022-08-16T11:30:30;30.10;89.60
18998;DHT22;9632;51.018;4.284;2022-08-16T11:32:56;30.10;90.00
18998;DHT22;9632;51.018;4.284;2022-08-16T11:35:25;30.10;90.20
18998;DHT22;9632;51.018;4.284;2022-08-16T11:37:55;30.10;90.30
18998;DHT22;9632;51.018;4.284;2022-08-16T11:40:23;30.00;90.00
18998;DHT22;9632;51.018;4.284;2022-08-16T11:42:49;29.90;90.40
18998;DHT22;9632;51.018;4.284;2022-08-16T11:45:15;29.90;90.30
18998;DHT22;9632;51.018;4.284;2022-08-16T11:47:40;29.90;90.40
18998;DHT22;9632;51.018;4.284;2022-08-16T11:50:08;30.00;90.40
18998;DHT22;9632;51.018;4.284;2022-08-16T11:52:35;30.20;90.40
18998;DHT22;9632;51.018;4.284;2022-08-16T11:55:03;30.20;89.40
18998;DHT22;9632;51.018;4.284;2022-08-16T11:57:29;30.20;88.60
18998;DHT22;9632;51.018;4.284;2022-08-16T11:59:55;30.30;89.40
18998;DHT22;9632;51.018;4.284;2022-08-16T12:02:21;30.30;89.70
18998;DHT22;9632;51.018;4.284;2022-08-16T12:04:46;30.30;88.50
18998;DHT22;9632;51.018;4.284;2022-08-16T12:07:12;30.30;89.60
18998;DHT22;9632;51.018;4.284;2022-08-16T12:09:38;30.20;88.40
18998;DHT22;9632;51.018;4.284;2022-08-16T12:12:05;30.20;89.10
18998;DHT22;9632;51.018;4.284;2022-08-16T12:14:32;30.20;89.40
18998;DHT22;9632;51.018;4.284;2022-08-16T12:16:59;30.20;88.60
18998;DHT22;9632;51.018;4.284;2022-08-16T12:19:27;30.20;87.90
18998;DHT22;9632;51.018;4.284;2022-08-16T12:21:53;30.30;89.10
18998;DHT22;9632;51.018;4.284;2022-08-16T12:24:20;30.40;89.70
18998;DHT22;9632;51.018;4.284;2022-08-16T12:26:46;30.50;86.60
18998;DHT22;9632;51.018;4.284;2022-08-16T12:29:13;30.60;86.40
18998;DHT22;9632;51.018;4.284;2022-08-16T12:31:39;30.50;86.00
18998;DHT22;9632;51.018;4.284;2022-08-16T12:34:05;30.60;86.30
18998;DHT22;9632;51.018;4.284;2022-08-16T12:36:32;30.50;83.40
18998;DHT22;9632;51.018;4.284;2022-08-16T12:39:00;30.40;83.40
18998;DHT22;9632;51.018;4.284;2022-08-16T12:41:26;30.50;85.30
18998;DHT22;9632;51.018;4.284;2022-08-16T12:43:53;30.40;84.20
18998;DHT22;9632;51.018;4.284;2022-08-16T12:46:19;30.30;85.80
18998;DHT22;9632;51.018;4.284;2022-08-16T12:48:45;30.40;87.30
18998;DHT22;9632;51.018;4.284;2022-08-16T12:51:26;30.40;85.10
18998;DHT22;9632;51.018;4.284;2022-08-16T12:53:55;30.40;85.80
18998;DHT22;9632;51.018;4.284;2022-08-16T12:56:24;30.40;85.20
18998;DHT22;9632;51.018;4.284;2022-08-16T12:58:50;30.50;85.70
18998;DHT22;9632;51.018;4.284;2022-08-16T13:01:20;30.50;86.70
18998;DHT22;9632;51.018;4.284;2022-08-16T13:03:46;30.60;88.60
18998;DHT22;9632;51.018;4.284;2022-08-16T13:06:13;30.60;87.10
18998;DHT22;9632;51.018;4.284;2022-08-16T13:08:39;30.70;85.10
18998;DHT22;9632;51.018;4.284;2022-08-16T13:11:06;30.80;85.00
18998;DHT22;9632;51.018;4.284;2022-08-16T13:13:32;30.80;86.10
18998;DHT22;9632;51.018;4.284;2022-08-16T13:16:00;30.80;84.10
18998;DHT22;9632;51.018;4.284;2022-08-16T13:18:28;30.80;85.70
18998;DHT22;9632;51.018;4.284;2022-08-16T13:20:57;30.80;85.70
18998;DHT22;9632;51.018;4.284;2022-08-16T13:23:23;30.80;84.60
18998;DHT22;9632;51.018;4.284;2022-08-16T13:25:50;30.80;85.00
18998;DHT22;9632;51.018;4.284;2022-08-16T13:28:17;30.80;85.00
18998;DHT22;9632;51.018;4.284;2022-08-16T13:30:46;30.80;83.70
18998;DHT22;9632;51.018;4.284;2022-08-16T13:33:15;30.80;84.90
18998;DHT22;9632;51.018;4.284;2022-08-16T13:35:45;30.90;85.70
18998;DHT22;9632;51.018;4.284;2022-08-16T13:38:12;31.00;85.90
18998;DHT22;9632;51.018;4.284;2022-08-16T13:40:38;30.90;84.40
18998;DHT22;9632;51.018;4.284;2022-08-16T13:43:04;30.90;85.30
18998;DHT22;9632;51.018;4.284;2022-08-16T13:45:30;30.90;84.30
18998;DHT22;9632;51.018;4.284;2022-08-16T13:47:57;30.90;84.90
18998;DHT22;9632;51.018;4.284;2022-08-16T13:50:23;30.90;85.60
18998;DHT22;9632;51.018;4.284;2022-08-16T13:52:49;30.80;83.60
18998;DHT22;9632;51.018;4.284;2022-08-16T13:55:15;30.80;83.90
18998;DHT22;9632;51.018;4.284;2022-08-16T13:57:41;30.80;85.20
18998;DHT22;9632;51.018;4.284;2022-08-16T14:00:08;30.80;85.90
18998;DHT22;9632;51.018;4.284;2022-08-16T14:02:34;30.80;86.10
18998;DHT22;9632;51.018;4.284;2022-08-16T14:05:00;30.80;86.50
18998;DHT22;9632;51.018;4.284;2022-08-16T14:07:26;30.80;86.70
18998;DHT22;9632;51.018;4.284;2022-08-16T14:09:51;30.70;84.90
18998;DHT22;9632;51.018;4.284;2022-08-16T14:12:26;30.70;85.80
18998;DHT22;9632;51.018;4.284;2022-08-16T14:14:53;30.70;86.00
18998;DHT22;9632;51.018;4.284;2022-08-16T14:17:20;30.70;86.60
18998;DHT22;9632;51.018;4.284;2022-08-16T14:19:47;30.60;86.10
18998;DHT22;9632;51.018;4.284;2022-08-16T14:22:33;30.70;85.10
18998;DHT22;9632;51.018;4.284;2022-08-16T14:25:00;30.70;85.60
18998;DHT22;9632;51.018;4.284;2022-08-16T14:27:28;30.70;87.40
18998;DHT22;9632;51.018;4.284;2022-08-16T14:29:55;30.60;86.40
18998;DHT22;9632;51.018;4.284;2022-08-16T14:32:23;30.50;86.00
18998;DHT22;9632;51.018;4.284;2022-08-16T14:34:51;30.50;87.30
18998;DHT22;9632;51.018;4.284;2022-08-16T14:37:16;30.60;87.20
18998;DHT22;9632;51.018;4.284;2022-08-16T14:39:42;30.50;86.50
18998;DHT22;9632;51.018;4.284;2022-08-16T14:42:14;30.60;86.70
18998;DHT22;9632;51.018;4.284;2022-08-16T14:44:42;30.60;86.80
18998;DHT22;9632;51.018;4.284;2022-08-16T14:47:08;30.70;85.90
18998;DHT22;9632;51.018;4.284;2022-08-16T14:49:34;30.80;87.90
18998;DHT22;9632;51.018;4.284;2022-08-16T14:52:21;30.80;87.30
18998;DHT22;9632;51.018;4.284;2022-08-16T14:54:48;30.80;85.70
18998;DHT22;9632;51.018;4.284;2022-08-16T14:57:14;30.80;86.50
18998;DHT22;9632;51.018;4.284;2022-08-16T14:59:42;30.90;85.60
18998;DHT22;9632;51.018;4.284;2022-08-16T15:02:15;31.00;85.30
18998;DHT22;9632;51.018;4.284;2022-08-16T15:04:41;31.00;85.30
18998;DHT22;9632;51.018;4.284;2022-08-16T15:07:08;31.00;85.70
18998;DHT22;9632;51.018;4.284;2022-08-16T15:09:34;30.90;84.20
18998;DHT22;9632;51.018;4.284;2022-08-16T15:12:18;30.90;85.20
18998;DHT22;9632;51.018;4.284;2022-08-16T15:14:45;30.80;85.00
18998;DHT22;9632;51.018;4.284;2022-08-16T15:17:12;30.80;85.20
18998;DHT22;9632;51.018;4.284;2022-08-16T15:19:39;30.80;85.20
18998;DHT22;9632;51.018;4.284;2022-08-16T15:22:10;30.80;86.00
18998;DHT22;9632;51.018;4.284;2022-08-16T15:24:37;30.80;85.00
18998;DHT22;9632;51.018;4.284;2022-08-16T15:27:04;30.80;87.50
18998;DHT22;9632;51.018;4.284;2022-08-16T15:29:30;30.80;87.70
18998;DHT22;9632;51.018;4.284;2022-08-16T15:31:56;30.90;87.50
18998;DHT22;9632;51.018;4.284;2022-08-16T15:34:22;30.90;86.30
18998;DHT22;9632;51.018;4.284;2022-08-16T15:36:48;30.90;86.00
18998;DHT22;9632;51.018;4.284;2022-08-16T15:39:14;30.90;86.80
18998;DHT22;9632;51.018;4.284;2022-08-16T15:44:07;30.70;87.10
18998;DHT22;9632;51.018;4.284;2022-08-16T15:46:33;30.70;87.00
18998;DHT22;9632;51.018;4.284;2022-08-16T15:48:59;30.60;86.90